sensor_id;sensor_type;location;lat;lon;timestamp;P1;durP1;ratioP1;P2;durP2;ratioP2
19030;SDS011;9648;51.130;13.978;2022-08-21T00:00:18;63.25;;;42.13;;
19030;SDS011;9648;51.130;13.978;2022-08-21T00:02:48;64.60;;;43.33;;
19030;SDS011;9648;51.130;13.978;2022-08-21T00:05:16;64.30;;;43.72;;
19030;SDS011;9648;51.130;13.978;2022-08-21T00:07:43;60.42;;;40.88;;
19030;SDS011;9648;51.130;13.978;2022-08-21T00:10:10;63.80;;;42.53;;
19030;SDS011;9648;51.130;13.978;2022-08-21T00:12:37;75.28;;;46.95;;
19030;SDS011;9648;51.130;13.978;2022-08-21T00:15:07;59.70;;;41.60;;
19030;SDS011;9648;51.130;13.978;2022-08-21T00:17:38;69.97;;;45.88;;
19030;SDS011;9648;51.130;13.978;2022-08-21T00:20:05;67.70;;;43.67;;
19030;SDS011;9648;51.130;13.978;2022-08-21T00:22:33;67.15;;;44.60;;
19030;SDS011;9648;51.130;13.978;2022-08-21T00:25:01;73.10;;;47.35;;
19030;SDS011;9648;51.130;13.978;2022-08-21T00:27:27;72.43;;;46.22;;
19030;SDS011;9648;51.130;13.978;2022-08-21T00:29:54;69.47;;;43.53;;
19030;SDS011;9648;51.130;13.978;2022-08-21T00:32:23;63.43;;;43.20;;
19030;SDS011;9648;51.130;13.978;2022-08-21T00:34:51;64.00;;;42.50;;
19030;SDS011;9648;51.130;13.978;2022-08-21T00:37:19;76.32;;;48.70;;
19030;SDS011;9648;51.130;13.978;2022-08-21T00:39:46;72.47;;;47.30;;
19030;SDS011;9648;51.130;13.978;2022-08-21T00:42:13;77.25;;;48.85;;
19030;SDS011;9648;51.130;13.978;2022-08-21T00:44:41;78.32;;;49.92;;
19030;SDS011;9648;51.130;13.978;2022-08-21T00:47:08;80.00;;;50.88;;
19030;SDS011;9648;51.130;13.978;2022-08-21T00:49:36;77.40;;;48.70;;
19030;SDS011;9648;51.130;13.978;2022-08-21T00:52:04;79.57;;;50.22;;
19030;SDS011;9648;51.130;13.978;2022-08-21T00:54:33;59.47;;;40.08;;
19030;SDS011;9648;51.130;13.978;2022-08-21T00:57:01;68.53;;;44.85;;
19030;SDS011;9648;51.130;13.978;2022-08-21T00:59:31;70.97;;;46.70;;
19030;SDS011;9648;51.130;13.978;2022-08-21T01:02:00;64.57;;;43.45;;
19030;SDS011;9648;51.130;13.978;2022-08-21T01:04:27;74.17;;;46.93;;
19030;SDS011;9648;51.130;13.978;2022-08-21T01:06:55;62.72;;;43.58;;
19030;SDS011;9648;51.130;13.978;2022-08-21T01:09:22;65.43;;;43.65;;
19030;SDS011;9648;51.130;13.978;2022-08-21T01:11:49;54.15;;;39.40;;
19030;SDS011;9648;51.130;13.978;2022-08-21T01:14:16;53.90;;;39.33;;
19030;SDS011;9648;51.130;13.978;2022-08-21T01:16:46;55.33;;;38.45;;
19030;SDS011;9648;51.130;13.978;2022-08-21T01:19:16;53.30;;;38.53;;
19030;SDS011;9648;51.130;13.978;2022-08-21T01:21:45;49.25;;;35.90;;
19030;SDS011;9648;51.130;13.978;2022-08-21T01:24:12;48.30;;;35.08;;
19030;SDS011;9648;51.130;13.978;2022-08-21T01:26:40;45.10;;;33.53;;
19030;SDS011;9648;51.130;13.978;2022-08-21T01:29:11;51.13;;;36.78;;
19030;SDS011;9648;51.130;13.978;2022-08-21T01:31:42;45.83;;;34.00;;
19030;SDS011;9648;51.130;13.978;2022-08-21T01:34:11;35.58;;;28.50;;
19030;SDS011;9648;51.130;13.978;2022-08-21T01:36:40;46.72;;;33.95;;
19030;SDS011;9648;51.130;13.978;2022-08-21T01:39:09;43.13;;;31.48;;
19030;SDS011;9648;51.130;13.978;2022-08-21T01:41:35;39.08;;;28.33;;
19030;SDS011;9648;51.130;13.978;2022-08-21T01:44:02;39.55;;;29.50;;
19030;SDS011;9648;51.130;13.978;2022-08-21T01:46:29;37.97;;;28.35;;
19030;SDS011;9648;51.130;13.978;2022-08-21T01:48:57;36.58;;;26.33;;
19030;SDS011;9648;51.130;13.978;2022-08-21T01:51:24;30.08;;;23.90;;
19030;SDS011;9648;51.130;13.978;2022-08-21T01:53:51;25.83;;;20.30;;
19030;SDS011;9648;51.130;13.978;2022-08-21T01:56:19;25.35;;;20.45;;
19030;SDS011;9648;51.130;13.978;2022-08-21T01:58:46;25.33;;;20.48;;
19030;SDS011;9648;51.130;13.978;2022-08-21T02:01:14;25.10;;;20.05;;
19030;SDS011;9648;51.130;13.978;2022-08-21T02:03:41;25.38;;;19.83;;
19030;SDS011;9648;51.130;13.978;2022-08-21T02:06:11;22.95;;;17.98;;
19030;SDS011;9648;51.130;13.978;2022-08-21T02:08:40;26.48;;;19.83;;
19030;SDS011;9648;51.130;13.978;2022-08-21T02:11:06;24.75;;;19.33;;
19030;SDS011;9648;51.130;13.978;2022-08-21T02:13:34;22.17;;;17.40;;
19030;SDS011;9648;51.130;13.978;2022-08-21T02:16:02;24.38;;;19.33;;
19030;SDS011;9648;51.130;13.978;2022-08-21T02:18:29;21.02;;;16.98;;
19030;SDS011;9648;51.130;13.978;2022-08-21T02:20:56;21.33;;;17.10;;
19030;SDS011;9648;51.130;13.978;2022-08-21T02:23:22;20.48;;;16.45;;
19030;SDS011;9648;51.130;13.978;2022-08-21T02:25:50;22.63;;;18.85;;
19030;SDS011;9648;51.130;13.978;2022-08-21T02:28:16;22.40;;;17.55;;
19030;SDS011;9648;51.130;13.978;2022-08-21T02:30:46;18.75;;;15.35;;
19030;SDS011;9648;51.130;13.978;2022-08-21T02:33:14;20.52;;;17.00;;
19030;SDS011;9648;51.130;13.978;2022-08-21T02:35:41;17.93;;;14.93;;
19030;SDS011;9648;51.130;13.978;2022-08-21T02:38:11;19.98;;;15.32;;
19030;SDS011;9648;51.130;13.978;2022-08-21T02:40:40;16.17;;;13.48;;
19030;SDS011;9648;51.130;13.978;2022-08-21T02:43:09;20.70;;;16.08;;
19030;SDS011;9648;51.130;13.978;2022-08-21T02:45:35;18.38;;;14.82;;
19030;SDS011;9648;51.130;13.978;2022-08-21T02:48:05;17.77;;;14.88;;
19030;SDS011;9648;51.130;13.978;2022-08-21T02:50:35;18.05;;;14.35;;
19030;SDS011;9648;51.130;13.978;2022-08-21T02:53:04;16.53;;;13.90;;
19030;SDS011;9648;51.130;13.978;2022-08-21T02:55:32;16.00;;;13.30;;
19030;SDS011;9648;51.130;13.978;2022-08-21T02:58:00;15.23;;;13.27;;
19030;SDS011;9648;51.130;13.978;2022-08-21T03:00:28;15.02;;;12.50;;
19030;SDS011;9648;51.130;13.978;2022-08-21T03:02:56;15.00;;;12.50;;
19030;SDS011;9648;51.130;13.978;2022-08-21T03:05:25;15.25;;;12.88;;
19030;SDS011;9648;51.130;13.978;2022-08-21T03:07:53;15.17;;;12.77;;
19030;SDS011;9648;51.130;13.978;2022-08-21T03:10:20;17.00;;;13.90;;
19030;SDS011;9648;51.130;13.978;2022-08-21T03:12:48;15.33;;;12.33;;
19030;SDS011;9648;51.130;13.978;2022-08-21T03:15:16;16.05;;;12.80;;
19030;SDS011;9648;51.130;13.978;2022-08-21T03:17:44;13.52;;;11.95;;
19030;SDS011;9648;51.130;13.978;2022-08-21T03:20:11;13.77;;;11.45;;
19030;SDS011;9648;51.130;13.978;2022-08-21T03:22:40;16.63;;;12.73;;
19030;SDS011;9648;51.130;13.978;2022-08-21T03:25:08;13.70;;;11.30;;
19030;SDS011;9648;51.130;13.978;2022-08-21T03:27:36;15.82;;;12.30;;
19030;SDS011;9648;51.130;13.978;2022-08-21T03:30:06;15.07;;;11.93;;
19030;SDS011;9648;51.130;13.978;2022-08-21T03:32:34;15.10;;;11.38;;
19030;SDS011;9648;51.130;13.978;2022-08-21T03:35:02;14.83;;;12.00;;
19030;SDS011;9648;51.130;13.978;2022-08-21T03:37:29;13.25;;;11.05;;
19030;SDS011;9648;51.130;13.978;2022-08-21T03:39:58;14.17;;;12.07;;
19030;SDS011;9648;51.130;13.978;2022-08-21T03:42:25;12.87;;;11.07;;
19030;SDS011;9648;51.130;13.978;2022-08-21T03:44:52;19.27;;;13.82;;
19030;SDS011;9648;51.130;13.978;2022-08-21T03:47:18;17.83;;;14.68;;
19030;SDS011;9648;51.130;13.978;2022-08-21T03:49:47;15.90;;;13.10;;
19030;SDS011;9648;51.130;13.978;2022-08-21T03:52:13;15.23;;;12.95;;
19030;SDS011;9648;51.130;13.978;2022-08-21T03:54:41;15.30;;;12.50;;
19030;SDS011;9648;51.130;13.978;2022-08-21T03:57:09;15.90;;;13.90;;
19030;SDS011;9648;51.130;13.978;2022-08-21T03:59:36;16.40;;;14.05;;
19030;SDS011;9648;51.130;13.978;2022-08-21T04:02:04;16.50;;;14.23;;
19030;SDS011;9648;51.130;13.978;2022-08-21T04:04:32;16.83;;;13.95;;
19030;SDS011;9648;51.130;13.978;2022-08-21T04:07:00;15.88;;;13.82;;
19030;SDS011;9648;51.130;13.978;2022-08-21T04:09:27;16.20;;;13.48;;
19030;SDS011;9648;51.130;13.978;2022-08-21T04:11:55;18.73;;;16.08;;
19030;SDS011;9648;51.130;13.978;2022-08-21T04:14:24;16.48;;;14.05;;
19030;SDS011;9648;51.130;13.978;2022-08-21T04:16:50;15.85;;;13.48;;
19030;SDS011;9648;51.130;13.978;2022-08-21T04:19:17;16.35;;;13.70;;
19030;SDS011;9648;51.130;13.978;2022-08-21T04:21:44;20.15;;;16.00;;
19030;SDS011;9648;51.130;13.978;2022-08-21T04:24:10;17.73;;;14.82;;
19030;SDS011;9648;51.130;13.978;2022-08-21T04:26:37;18.30;;;15.60;;
19030;SDS011;9648;51.130;13.978;2022-08-21T04:29:05;18.00;;;15.32;;
19030;SDS011;9648;51.130;13.978;2022-08-21T04:31:33;17.88;;;14.32;;
19030;SDS011;9648;51.130;13.978;2022-08-21T04:34:01;17.83;;;15.05;;
19030;SDS011;9648;51.130;13.978;2022-08-21T04:36:29;19.27;;;15.35;;
19030;SDS011;9648;51.130;13.978;2022-08-21T04:38:56;18.63;;;15.10;;
19030;SDS011;9648;51.130;13.978;2022-08-21T04:41:23;17.35;;;14.68;;
19030;SDS011;9648;51.130;13.978;2022-08-21T04:43:50;17.75;;;15.02;;
19030;SDS011;9648;51.130;13.978;2022-08-21T04:46:17;17.15;;;14.55;;
19030;SDS011;9648;51.130;13.978;2022-08-21T04:48:45;17.48;;;14.35;;
19030;SDS011;9648;51.130;13.978;2022-08-21T04:51:13;16.85;;;14.30;;
19030;SDS011;9648;51.130;13.978;2022-08-21T04:53:45;20.38;;;15.85;;
19030;SDS011;9648;51.130;13.978;2022-08-21T04:56:15;18.98;;;15.55;;
19030;SDS011;9648;51.130;13.978;2022-08-21T04:58:48;17.83;;;15.27;;
19030;SDS011;9648;51.130;13.978;2022-08-21T05:01:18;17.95;;;15.43;;
19030;SDS011;9648;51.130;13.978;2022-08-21T05:03:48;16.37;;;14.17;;
19030;SDS011;9648;51.130;13.978;2022-08-21T05:06:18;17.20;;;14.38;;
19030;SDS011;9648;51.130;13.978;2022-08-21T05:08:46;16.80;;;14.90;;
19030;SDS011;9648;51.130;13.978;2022-08-21T05:11:14;16.55;;;13.80;;
19030;SDS011;9648;51.130;13.978;2022-08-21T05:13:41;18.33;;;14.80;;
19030;SDS011;9648;51.130;13.978;2022-08-21T05:16:08;19.02;;;15.73;;
19030;SDS011;9648;51.130;13.978;2022-08-21T05:18:35;20.13;;;16.10;;
19030;SDS011;9648;51.130;13.978;2022-08-21T05:21:03;15.85;;;13.63;;
19030;SDS011;9648;51.130;13.978;2022-08-21T05:23:30;17.00;;;14.52;;
19030;SDS011;9648;51.130;13.978;2022-08-21T05:25:57;19.55;;;15.70;;
19030;SDS011;9648;51.130;13.978;2022-08-21T05:28:24;15.98;;;13.98;;
19030;SDS011;9648;51.130;13.978;2022-08-21T05:30:51;19.52;;;16.40;;
19030;SDS011;9648;51.130;13.978;2022-08-21T05:33:18;17.85;;;15.38;;
19030;SDS011;9648;51.130;13.978;2022-08-21T05:35:45;17.85;;;15.45;;
19030;SDS011;9648;51.130;13.978;2022-08-21T05:38:16;19.85;;;16.98;;
19030;SDS011;9648;51.130;13.978;2022-08-21T05:40:43;21.00;;;17.17;;
19030;SDS011;9648;51.130;13.978;2022-08-21T05:43:10;19.67;;;16.63;;
19030;SDS011;9648;51.130;13.978;2022-08-21T05:45:37;19.88;;;16.17;;
19030;SDS011;9648;51.130;13.978;2022-08-21T05:48:06;20.10;;;16.90;;
19030;SDS011;9648;51.130;13.978;2022-08-21T05:50:34;17.20;;;15.15;;
19030;SDS011;9648;51.130;13.978;2022-08-21T05:53:02;19.23;;;15.33;;
19030;SDS011;9648;51.130;13.978;2022-08-21T05:55:30;20.70;;;17.15;;
19030;SDS011;9648;51.130;13.978;2022-08-21T05:57:57;19.75;;;16.25;;
19030;SDS011;9648;51.130;13.978;2022-08-21T06:00:24;23.13;;;17.57;;
19030;SDS011;9648;51.130;13.978;2022-08-21T06:02:51;24.67;;;19.83;;
19030;SDS011;9648;51.130;13.978;2022-08-21T06:05:18;20.77;;;17.73;;
19030;SDS011;9648;51.130;13.978;2022-08-21T06:07:44;24.15;;;19.80;;
19030;SDS011;9648;51.130;13.978;2022-08-21T06:10:11;24.10;;;19.80;;
19030;SDS011;9648;51.130;13.978;2022-08-21T06:12:40;19.60;;;16.95;;
19030;SDS011;9648;51.130;13.978;2022-08-21T06:15:07;25.75;;;20.83;;
19030;SDS011;9648;51.130;13.978;2022-08-21T06:17:34;22.38;;;17.90;;
19030;SDS011;9648;51.130;13.978;2022-08-21T06:20:01;24.07;;;19.00;;
19030;SDS011;9648;51.130;13.978;2022-08-21T06:22:29;20.00;;;16.98;;
19030;SDS011;9648;51.130;13.978;2022-08-21T06:24:55;22.90;;;18.65;;
19030;SDS011;9648;51.130;13.978;2022-08-21T06:27:22;20.27;;;16.85;;
19030;SDS011;9648;51.130;13.978;2022-08-21T06:29:50;20.50;;;17.20;;
19030;SDS011;9648;51.130;13.978;2022-08-21T06:32:17;22.73;;;18.08;;
19030;SDS011;9648;51.130;13.978;2022-08-21T06:34:43;19.93;;;17.03;;
19030;SDS011;9648;51.130;13.978;2022-08-21T06:37:10;17.80;;;15.07;;
19030;SDS011;9648;51.130;13.978;2022-08-21T06:39:37;17.98;;;14.82;;
19030;SDS011;9648;51.130;13.978;2022-08-21T06:42:04;20.48;;;17.13;;
19030;SDS011;9648;51.130;13.978;2022-08-21T06:44:31;21.00;;;17.65;;
19030;SDS011;9648;51.130;13.978;2022-08-21T06:46:59;18.77;;;15.82;;
19030;SDS011;9648;51.130;13.978;2022-08-21T06:49:26;20.30;;;17.52;;
19030;SDS011;9648;51.130;13.978;2022-08-21T06:51:52;19.00;;;16.33;;
19030;SDS011;9648;51.130;13.978;2022-08-21T06:54:19;21.63;;;18.67;;
19030;SDS011;9648;51.130;13.978;2022-08-21T06:56:46;19.73;;;15.43;;
19030;SDS011;9648;51.130;13.978;2022-08-21T06:59:12;18.25;;;15.50;;
19030;SDS011;9648;51.130;13.978;2022-08-21T07:01:39;21.13;;;17.48;;
19030;SDS011;9648;51.130;13.978;2022-08-21T07:04:07;18.07;;;16.17;;
19030;SDS011;9648;51.130;13.978;2022-08-21T07:06:34;17.57;;;15.40;;
19030;SDS011;9648;51.130;13.978;2022-08-21T07:09:01;19.00;;;15.57;;
19030;SDS011;9648;51.130;13.978;2022-08-21T07:11:28;20.73;;;16.70;;
19030;SDS011;9648;51.130;13.978;2022-08-21T07:13:55;20.95;;;16.50;;
19030;SDS011;9648;51.130;13.978;2022-08-21T07:16:23;19.80;;;16.08;;
19030;SDS011;9648;51.130;13.978;2022-08-21T07:18:50;22.65;;;17.75;;
19030;SDS011;9648;51.130;13.978;2022-08-21T07:21:18;17.13;;;15.18;;
19030;SDS011;9648;51.130;13.978;2022-08-21T07:23:46;17.42;;;14.60;;
19030;SDS011;9648;51.130;13.978;2022-08-21T07:26:15;17.40;;;14.70;;
19030;SDS011;9648;51.130;13.978;2022-08-21T07:28:46;18.40;;;15.90;;
19030;SDS011;9648;51.130;13.978;2022-08-21T07:31:13;19.00;;;15.35;;
19030;SDS011;9648;51.130;13.978;2022-08-21T07:33:42;17.77;;;14.73;;
19030;SDS011;9648;51.130;13.978;2022-08-21T07:36:09;17.55;;;15.60;;
19030;SDS011;9648;51.130;13.978;2022-08-21T07:38:38;17.08;;;14.02;;
19030;SDS011;9648;51.130;13.978;2022-08-21T07:41:07;19.35;;;16.13;;
19030;SDS011;9648;51.130;13.978;2022-08-21T07:43:39;17.88;;;15.82;;
19030;SDS011;9648;51.130;13.978;2022-08-21T07:46:07;19.38;;;16.10;;
19030;SDS011;9648;51.130;13.978;2022-08-21T07:48:33;15.48;;;13.88;;
19030;SDS011;9648;51.130;13.978;2022-08-21T07:51:01;16.40;;;13.98;;
19030;SDS011;9648;51.130;13.978;2022-08-21T07:53:31;19.48;;;15.82;;
19030;SDS011;9648;51.130;13.978;2022-08-21T07:55:59;15.48;;;13.57;;
19030;SDS011;9648;51.130;13.978;2022-08-21T07:58:26;16.33;;;13.70;;
19030;SDS011;9648;51.130;13.978;2022-08-21T08:00:53;18.98;;;15.13;;
19030;SDS011;9648;51.130;13.978;2022-08-21T08:03:19;18.70;;;15.02;;
19030;SDS011;9648;51.130;13.978;2022-08-21T08:05:46;17.33;;;14.37;;
19030;SDS011;9648;51.130;13.978;2022-08-21T08:08:13;17.17;;;13.82;;
19030;SDS011;9648;51.130;13.978;2022-08-21T08:10:40;15.27;;;13.23;;
19030;SDS011;9648;51.130;13.978;2022-08-21T08:13:08;17.42;;;13.98;;
19030;SDS011;9648;51.130;13.978;2022-08-21T08:15:35;16.48;;;13.52;;
19030;SDS011;9648;51.130;13.978;2022-08-21T08:18:02;14.47;;;11.80;;
19030;SDS011;9648;51.130;13.978;2022-08-21T08:20:29;16.50;;;12.50;;
19030;SDS011;9648;51.130;13.978;2022-08-21T08:22:56;20.58;;;14.50;;
19030;SDS011;9648;51.130;13.978;2022-08-21T08:25:23;16.08;;;13.00;;
19030;SDS011;9648;51.130;13.978;2022-08-21T08:27:51;15.50;;;13.10;;
19030;SDS011;9648;51.130;13.978;2022-08-21T08:30:20;13.18;;;11.02;;
19030;SDS011;9648;51.130;13.978;2022-08-21T08:32:48;14.23;;;10.23;;
19030;SDS011;9648;51.130;13.978;2022-08-21T08:35:15;14.57;;;10.77;;
19030;SDS011;9648;51.130;13.978;2022-08-21T08:37:42;12.27;;;9.88;;
19030;SDS011;9648;51.130;13.978;2022-08-21T08:40:11;13.23;;;8.93;;
19030;SDS011;9648;51.130;13.978;2022-08-21T08:42:39;10.93;;;7.88;;
19030;SDS011;9648;51.130;13.978;2022-08-21T08:45:08;14.82;;;7.35;;
19030;SDS011;9648;51.130;13.978;2022-08-21T08:47:39;8.43;;;6.40;;
19030;SDS011;9648;51.130;13.978;2022-08-21T08:50:11;9.32;;;6.72;;
19030;SDS011;9648;51.130;13.978;2022-08-21T08:52:47;8.70;;;5.80;;
19030;SDS011;9648;51.130;13.978;2022-08-21T08:55:17;9.43;;;5.75;;
19030;SDS011;9648;51.130;13.978;2022-08-21T08:57:48;9.95;;;5.53;;
19030;SDS011;9648;51.130;13.978;2022-08-21T09:00:18;8.60;;;4.93;;
19030;SDS011;9648;51.130;13.978;2022-08-21T09:02:48;6.23;;;4.60;;
19030;SDS011;9648;51.130;13.978;2022-08-21T09:05:19;9.25;;;5.05;;
19030;SDS011;9648;51.130;13.978;2022-08-21T09:07:51;9.13;;;5.03;;
19030;SDS011;9648;51.130;13.978;2022-08-21T09:10:35;6.25;;;4.18;;
19030;SDS011;9648;51.130;13.978;2022-08-21T09:13:11;6.28;;;3.80;;
19030;SDS011;9648;51.130;13.978;2022-08-21T09:15:44;9.00;;;4.50;;
19030;SDS011;9648;51.130;13.978;2022-08-21T09:18:23;6.13;;;3.60;;
19030;SDS011;9648;51.130;13.978;2022-08-21T09:21:02;7.45;;;4.00;;
19030;SDS011;9648;51.130;13.978;2022-08-21T09:23:41;7.25;;;3.80;;
19030;SDS011;9648;51.130;13.978;2022-08-21T09:26:17;8.77;;;3.95;;
19030;SDS011;9648;51.130;13.978;2022-08-21T09:28:45;5.05;;;3.33;;
19030;SDS011;9648;51.130;13.978;2022-08-21T09:31:22;6.50;;;3.40;;
19030;SDS011;9648;51.130;13.978;2022-08-21T09:33:56;7.03;;;3.22;;
19030;SDS011;9648;51.130;13.978;2022-08-21T09:36:24;6.57;;;3.03;;
19030;SDS011;9648;51.130;13.978;2022-08-21T09:38:57;7.18;;;3.30;;
19030;SDS011;9648;51.130;13.978;2022-08-21T09:41:27;6.18;;;3.22;;
19030;SDS011;9648;51.130;13.978;2022-08-21T09:43:56;5.15;;;3.13;;
19030;SDS011;9648;51.130;13.978;2022-08-21T09:46:24;4.63;;;3.42;;
19030;SDS011;9648;51.130;13.978;2022-08-21T09:48:54;7.23;;;3.20;;
19030;SDS011;9648;51.130;13.978;2022-08-21T09:51:24;5.90;;;2.97;;
19030;SDS011;9648;51.130;13.978;2022-08-21T09:53:54;6.57;;;3.13;;
19030;SDS011;9648;51.130;13.978;2022-08-21T09:56:27;7.33;;;2.80;;
19030;SDS011;9648;51.130;13.978;2022-08-21T09:59:15;6.00;;;2.35;;
19030;SDS011;9648;51.130;13.978;2022-08-21T10:01:44;5.63;;;2.20;;
19030;SDS011;9648;51.130;13.978;2022-08-21T10:04:14;4.37;;;2.30;;
19030;SDS011;9648;51.130;13.978;2022-08-21T10:06:46;5.28;;;2.50;;
19030;SDS011;9648;51.130;13.978;2022-08-21T10:09:15;4.93;;;2.22;;
19030;SDS011;9648;51.130;13.978;2022-08-21T10:11:44;6.50;;;2.30;;
19030;SDS011;9648;51.130;13.978;2022-08-21T10:14:19;6.27;;;2.30;;
19030;SDS011;9648;51.130;13.978;2022-08-21T10:17:04;4.95;;;2.33;;
19030;SDS011;9648;51.130;13.978;2022-08-21T10:19:40;6.55;;;2.30;;
19030;SDS011;9648;51.130;13.978;2022-08-21T10:22:17;5.32;;;2.15;;
19030;SDS011;9648;51.130;13.978;2022-08-21T10:24:51;4.00;;;1.98;;
19030;SDS011;9648;51.130;13.978;2022-08-21T10:27:37;4.97;;;2.05;;
19030;SDS011;9648;51.130;13.978;2022-08-21T10:30:14;5.60;;;2.25;;
19030;SDS011;9648;51.130;13.978;2022-08-21T10:32:51;5.75;;;2.25;;
19030;SDS011;9648;51.130;13.978;2022-08-21T10:35:41;5.60;;;2.10;;
19030;SDS011;9648;51.130;13.978;2022-08-21T10:38:34;5.28;;;2.10;;
19030;SDS011;9648;51.130;13.978;2022-08-21T10:41:22;4.47;;;2.30;;
19030;SDS011;9648;51.130;13.978;2022-08-21T10:43:59;4.63;;;2.20;;
19030;SDS011;9648;51.130;13.978;2022-08-21T10:46:37;7.53;;;2.55;;
19030;SDS011;9648;51.130;13.978;2022-08-21T10:49:17;5.65;;;2.20;;
19030;SDS011;9648;51.130;13.978;2022-08-21T10:51:54;6.82;;;2.30;;
19030;SDS011;9648;51.130;13.978;2022-08-21T10:54:34;5.78;;;2.10;;
19030;SDS011;9648;51.130;13.978;2022-08-21T10:57:07;5.95;;;2.30;;
19030;SDS011;9648;51.130;13.978;2022-08-21T10:59:39;6.10;;;2.30;;
19030;SDS011;9648;51.130;13.978;2022-08-21T11:02:13;5.18;;;2.40;;
19030;SDS011;9648;51.130;13.978;2022-08-21T11:04:47;6.25;;;2.50;;
19030;SDS011;9648;51.130;13.978;2022-08-21T11:07:21;5.03;;;2.30;;
19030;SDS011;9648;51.130;13.978;2022-08-21T11:09:54;5.63;;;2.20;;
19030;SDS011;9648;51.130;13.978;2022-08-21T11:12:23;7.15;;;2.20;;
19030;SDS011;9648;51.130;13.978;2022-08-21T11:14:54;5.95;;;1.90;;
19030;SDS011;9648;51.130;13.978;2022-08-21T11:17:28;4.13;;;1.73;;
19030;SDS011;9648;51.130;13.978;2022-08-21T11:19:59;4.85;;;1.70;;
19030;SDS011;9648;51.130;13.978;2022-08-21T11:22:35;4.63;;;1.70;;
19030;SDS011;9648;51.130;13.978;2022-08-21T11:25:09;5.55;;;1.70;;
19030;SDS011;9648;51.130;13.978;2022-08-21T11:27:42;5.43;;;1.87;;
19030;SDS011;9648;51.130;13.978;2022-08-21T11:30:12;4.47;;;1.73;;
19030;SDS011;9648;51.130;13.978;2022-08-21T11:32:47;7.57;;;2.65;;
19030;SDS011;9648;51.130;13.978;2022-08-21T11:35:30;4.53;;;1.60;;
19030;SDS011;9648;51.130;13.978;2022-08-21T11:38:07;4.28;;;1.50;;
19030;SDS011;9648;51.130;13.978;2022-08-21T11:40:48;4.95;;;1.75;;
19030;SDS011;9648;51.130;13.978;2022-08-21T11:43:24;6.45;;;1.48;;
19030;SDS011;9648;51.130;13.978;2022-08-21T11:46:02;4.10;;;1.38;;
19030;SDS011;9648;51.130;13.978;2022-08-21T11:48:40;5.00;;;1.53;;
19030;SDS011;9648;51.130;13.978;2022-08-21T11:51:16;4.85;;;1.65;;
19030;SDS011;9648;51.130;13.978;2022-08-21T11:53:49;5.10;;;1.60;;
19030;SDS011;9648;51.130;13.978;2022-08-21T11:56:21;4.93;;;1.70;;
19030;SDS011;9648;51.130;13.978;2022-08-21T11:58:52;5.07;;;1.50;;
19030;SDS011;9648;51.130;13.978;2022-08-21T12:01:24;4.03;;;1.50;;
19030;SDS011;9648;51.130;13.978;2022-08-21T12:03:55;3.75;;;1.40;;
19030;SDS011;9648;51.130;13.978;2022-08-21T12:06:29;5.43;;;1.70;;
19030;SDS011;9648;51.130;13.978;2022-08-21T12:09:01;7.00;;;1.77;;
19030;SDS011;9648;51.130;13.978;2022-08-21T12:11:30;7.28;;;2.00;;
19030;SDS011;9648;51.130;13.978;2022-08-21T12:13:58;3.20;;;1.40;;
19030;SDS011;9648;51.130;13.978;2022-08-21T12:16:30;5.82;;;1.60;;
19030;SDS011;9648;51.130;13.978;2022-08-21T12:19:05;5.40;;;1.67;;
19030;SDS011;9648;51.130;13.978;2022-08-21T12:21:33;6.25;;;1.50;;
19030;SDS011;9648;51.130;13.978;2022-08-21T12:24:17;6.03;;;1.77;;
19030;SDS011;9648;51.130;13.978;2022-08-21T12:26:58;4.82;;;1.40;;
19030;SDS011;9648;51.130;13.978;2022-08-21T12:29:26;3.78;;;1.40;;
19030;SDS011;9648;51.130;13.978;2022-08-21T12:31:56;5.65;;;1.60;;
19030;SDS011;9648;51.130;13.978;2022-08-21T12:34:29;3.40;;;1.33;;
19030;SDS011;9648;51.130;13.978;2022-08-21T12:37:02;5.18;;;1.60;;
19030;SDS011;9648;51.130;13.978;2022-08-21T12:39:34;4.93;;;1.45;;
19030;SDS011;9648;51.130;13.978;2022-08-21T12:42:05;5.53;;;1.33;;
19030;SDS011;9648;51.130;13.978;2022-08-21T12:44:39;5.28;;;1.52;;
19030;SDS011;9648;51.130;13.978;2022-08-21T12:47:14;3.10;;;1.20;;
19030;SDS011;9648;51.130;13.978;2022-08-21T12:49:45;5.05;;;1.23;;
19030;SDS011;9648;51.130;13.978;2022-08-21T12:52:19;5.05;;;1.30;;
19030;SDS011;9648;51.130;13.978;2022-08-21T12:54:49;6.40;;;1.50;;
19030;SDS011;9648;51.130;13.978;2022-08-21T12:57:19;3.88;;;1.25;;
19030;SDS011;9648;51.130;13.978;2022-08-21T12:59:52;4.43;;;1.23;;
19030;SDS011;9648;51.130;13.978;2022-08-21T13:02:21;5.07;;;1.50;;
19030;SDS011;9648;51.130;13.978;2022-08-21T13:04:50;4.97;;;1.30;;
19030;SDS011;9648;51.130;13.978;2022-08-21T13:07:22;5.68;;;1.55;;
19030;SDS011;9648;51.130;13.978;2022-08-21T13:09:53;5.57;;;1.48;;
19030;SDS011;9648;51.130;13.978;2022-08-21T13:12:23;5.13;;;1.30;;
19030;SDS011;9648;51.130;13.978;2022-08-21T13:14:51;6.18;;;1.20;;
19030;SDS011;9648;51.130;13.978;2022-08-21T13:17:21;5.18;;;1.30;;
19030;SDS011;9648;51.130;13.978;2022-08-21T13:19:54;3.15;;;1.20;;
19030;SDS011;9648;51.130;13.978;2022-08-21T13:22:23;3.83;;;1.20;;
19030;SDS011;9648;51.130;13.978;2022-08-21T13:24:50;3.70;;;1.20;;
19030;SDS011;9648;51.130;13.978;2022-08-21T13:27:20;5.22;;;1.33;;
19030;SDS011;9648;51.130;13.978;2022-08-21T13:30:00;4.75;;;1.27;;
19030;SDS011;9648;51.130;13.978;2022-08-21T13:32:32;3.53;;;1.25;;
19030;SDS011;9648;51.130;13.978;2022-08-21T13:35:10;4.90;;;1.37;;
19030;SDS011;9648;51.130;13.978;2022-08-21T13:37:44;5.45;;;1.33;;
19030;SDS011;9648;51.130;13.978;2022-08-21T13:40:15;6.82;;;1.48;;
19030;SDS011;9648;51.130;13.978;2022-08-21T13:42:45;4.30;;;1.00;;
19030;SDS011;9648;51.130;13.978;2022-08-21T13:45:15;6.60;;;1.30;;
19030;SDS011;9648;51.130;13.978;2022-08-21T13:47:45;4.88;;;1.30;;
19030;SDS011;9648;51.130;13.978;2022-08-21T13:50:13;2.78;;;1.10;;
19030;SDS011;9648;51.130;13.978;2022-08-21T13:52:46;2.75;;;1.13;;
19030;SDS011;9648;51.130;13.978;2022-08-21T13:55:21;5.38;;;1.40;;
19030;SDS011;9648;51.130;13.978;2022-08-21T13:57:47;5.00;;;1.27;;
19030;SDS011;9648;51.130;13.978;2022-08-21T14:00:26;4.57;;;1.50;;
19030;SDS011;9648;51.130;13.978;2022-08-21T14:02:59;2.85;;;1.00;;
19030;SDS011;9648;51.130;13.978;2022-08-21T14:05:29;5.22;;;1.20;;
19030;SDS011;9648;51.130;13.978;2022-08-21T14:08:00;3.65;;;1.30;;
19030;SDS011;9648;51.130;13.978;2022-08-21T14:10:34;4.75;;;1.40;;
19030;SDS011;9648;51.130;13.978;2022-08-21T14:13:06;5.45;;;1.30;;
19030;SDS011;9648;51.130;13.978;2022-08-21T14:15:34;4.67;;;1.40;;
19030;SDS011;9648;51.130;13.978;2022-08-21T14:18:07;4.88;;;1.23;;
19030;SDS011;9648;51.130;13.978;2022-08-21T14:20:38;2.83;;;0.83;;
19030;SDS011;9648;51.130;13.978;2022-08-21T14:23:05;4.95;;;1.27;;
19030;SDS011;9648;51.130;13.978;2022-08-21T14:25:39;3.95;;;1.20;;
19030;SDS011;9648;51.130;13.978;2022-08-21T14:28:12;4.80;;;1.40;;
19030;SDS011;9648;51.130;13.978;2022-08-21T14:30:50;5.95;;;1.35;;
19030;SDS011;9648;51.130;13.978;2022-08-21T14:33:18;3.40;;;1.00;;
19030;SDS011;9648;51.130;13.978;2022-08-21T14:35:49;4.67;;;1.70;;
19030;SDS011;9648;51.130;13.978;2022-08-21T14:38:18;3.25;;;1.35;;
19030;SDS011;9648;51.130;13.978;2022-08-21T14:40:50;5.03;;;0.93;;
19030;SDS011;9648;51.130;13.978;2022-08-21T14:43:20;3.88;;;1.00;;
19030;SDS011;9648;51.130;13.978;2022-08-21T14:45:47;5.55;;;1.30;;